createdAt,value
2022-08-16T00:01:24.812Z,15.70
2022-08-16T00:03:54.023Z,16.80
2022-08-16T00:06:22.717Z,17.83
2022-08-16T00:08:49.946Z,17.38
2022-08-16T00:11:18.049Z,19.80
2022-08-16T00:13:53.687Z,16.42
2022-08-16T00:17:05.594Z,16.77
2022-08-16T00:19:25.036Z,15.88
2022-08-16T00:22:01.669Z,16.27
2022-08-16T00:24:34.572Z,14.75
2022-08-16T00:27:03.577Z,18.23
2022-08-16T00:29:30.810Z,14.82
2022-08-16T00:32:01.300Z,16.42
2022-08-16T00:34:43.465Z,17.15
2022-08-16T00:37:21.146Z,17.00
2022-08-16T00:39:58.180Z,15.77
2022-08-16T00:42:32.294Z,16.90
2022-08-16T00:45:09.344Z,18.05
2022-08-16T00:47:48.862Z,17.77
2022-08-16T00:50:20.489Z,17.25
2022-08-16T00:52:51.052Z,16.48
2022-08-16T00:55:22.083Z,16.90
2022-08-16T00:57:59.805Z,18.85
2022-08-16T01:00:31.288Z,17.08
2022-08-16T01:03:02.875Z,16.63
2022-08-16T01:05:30.641Z,16.92
2022-08-16T01:08:00.114Z,18.75
2022-08-16T01:10:33.214Z,18.98
2022-08-16T01:13:22.673Z,16.35
2022-08-16T01:16:13.183Z,15.65
2022-08-16T01:19:05.468Z,16.58
2022-08-16T01:21:47.817Z,16.17
2022-08-16T01:24:51.952Z,17.98
2022-08-16T01:27:27.928Z,19.10
2022-08-16T01:30:20.073Z,18.33
2022-08-16T01:33:01.304Z,18.35
2022-08-16T01:35:52.510Z,20.58
2022-08-16T01:38:25.718Z,17.50
2022-08-16T01:41:01.854Z,16.02
2022-08-16T01:43:31.356Z,16.38
2022-08-16T01:46:31.210Z,18.25
2022-08-16T01:48:48.811Z,16.00
2022-08-16T01:51:18.522Z,17.20
2022-08-16T01:53:55.315Z,16.88
2022-08-16T01:56:24.598Z,20.88
2022-08-16T01:58:54.935Z,18.48
2022-08-16T02:01:23.076Z,16.38
2022-08-16T02:03:53.201Z,19.75
2022-08-16T02:06:34.726Z,17.20
2022-08-16T02:09:06.362Z,17.38
2022-08-16T02:11:47.720Z,19.90
2022-08-16T02:14:18.601Z,17.38
2022-08-16T02:16:49.742Z,18.45
2022-08-16T02:19:18.595Z,16.95
2022-08-16T02:22:09.231Z,16.92
2022-08-16T02:24:42.314Z,19.30
2022-08-16T02:27:13.363Z,15.85
2022-08-16T02:29:41.548Z,17.08
2022-08-16T02:32:50.117Z,18.67
2022-08-16T02:34:58.472Z,19.63
2022-08-16T02:37:44.748Z,19.63
2022-08-16T02:40:13.344Z,20.20
2022-08-16T02:42:49.693Z,17.92
2022-08-16T02:45:20.439Z,17.98
2022-08-16T02:48:00.644Z,17.17
2022-08-16T02:50:53.976Z,18.95
2022-08-16T02:53:27.232Z,20.80
2022-08-16T02:55:54.323Z,19.38
2022-08-16T02:58:25.005Z,17.80
2022-08-16T03:00:57.833Z,18.20
2022-08-16T03:03:26.854Z,18.92
2022-08-16T03:06:41.376Z,18.38
2022-08-16T03:09:01.773Z,18.20
2022-08-16T03:11:35.600Z,18.38
2022-08-16T03:14:02.682Z,22.00
2022-08-16T03:16:39.000Z,19.92
2022-08-16T03:19:20.993Z,18.00
2022-08-16T03:21:52.628Z,17.15
2022-08-16T03:24:29.019Z,17.92
2022-08-16T03:27:02.783Z,21.38
2022-08-16T03:29:33.803Z,19.77
2022-08-16T03:32:02.371Z,16.83
2022-08-16T03:34:31.175Z,19.13
2022-08-16T03:36:58.345Z,20.40
2022-08-16T03:39:25.181Z,19.27
2022-08-16T03:42:00.018Z,16.85
2022-08-16T03:47:18.526Z,20.90
2022-08-16T03:49:51.796Z,18.95
2022-08-16T03:52:20.682Z,19.50
2022-08-16T03:54:53.241Z,23.58
2022-08-16T03:57:20.647Z,18.63
2022-08-16T03:59:47.370Z,19.00
2022-08-16T04:02:22.367Z,20.60
2022-08-16T04:04:58.553Z,18.35
2022-08-16T04:07:25.570Z,18.77
2022-08-16T04:09:52.519Z,26.30
2022-08-16T04:12:54.536Z,18.25
2022-08-16T04:15:10.530Z,19.25
2022-08-16T04:17:40.855Z,20.40
2022-08-16T04:20:31.440Z,24.42
2022-08-16T04:22:56.414Z,20.08
2022-08-16T04:25:28.070Z,18.85
2022-08-16T04:27:56.972Z,18.08
2022-08-16T04:30:32.010Z,18.77
2022-08-16T04:33:02.173Z,18.70
2022-08-16T04:35:34.324Z,18.50
2022-08-16T04:38:11.106Z,20.52
2022-08-16T04:40:48.272Z,19.08
2022-08-16T04:43:18.614Z,21.55
2022-08-16T04:45:46.380Z,19.23
2022-08-16T04:48:22.052Z,22.40
2022-08-16T04:50:59.363Z,18.20
2022-08-16T04:53:26.033Z,18.73
2022-08-16T04:55:53.367Z,23.63
2022-08-16T04:58:45.254Z,23.80
2022-08-16T05:01:08.660Z,23.88
2022-08-16T05:03:35.390Z,24.88
2022-08-16T05:06:09.503Z,21.80
2022-08-16T05:08:37.441Z,20.10
2022-08-16T05:11:08.595Z,19.23
2022-08-16T05:13:41.429Z,17.42
2022-08-16T05:16:16.674Z,18.42
2022-08-16T05:18:47.965Z,18.48
2022-08-16T05:21:14.968Z,16.70
2022-08-16T05:23:44.394Z,17.20
2022-08-16T05:26:20.422Z,18.55
2022-08-16T05:28:55.196Z,17.05
2022-08-16T05:31:24.126Z,16.67
2022-08-16T05:33:57.672Z,18.65
2022-08-16T05:36:24.924Z,16.75
2022-08-16T05:39:05.835Z,14.82
2022-08-16T05:41:33.126Z,16.00
2022-08-16T05:44:22.904Z,15.02
2022-08-16T05:47:00.822Z,14.10
2022-08-16T05:49:39.471Z,15.45
2022-08-16T05:52:11.598Z,16.92
2022-08-16T05:54:46.606Z,14.32
2022-08-16T05:57:13.910Z,14.85
2022-08-16T05:59:41.867Z,15.02
2022-08-16T06:02:08.627Z,14.20
2022-08-16T06:04:37.585Z,15.18
2022-08-16T06:07:08.800Z,14.63
2022-08-16T06:09:43.722Z,15.70
2022-08-16T06:12:26.804Z,15.27
2022-08-16T06:17:42.363Z,14.15
2022-08-16T06:20:23.132Z,14.23
2022-08-16T06:22:57.523Z,14.82
2022-08-16T06:25:35.993Z,16.15
2022-08-16T06:28:09.485Z,14.25
2022-08-16T06:30:44.056Z,13.10
2022-08-16T06:33:22.307Z,12.13
2022-08-16T06:35:54.652Z,14.02
2022-08-16T06:38:33.245Z,13.52
2022-08-16T06:41:13.454Z,12.82
2022-08-16T06:43:41.785Z,12.55
2022-08-16T06:46:21.965Z,12.00
2022-08-16T06:48:51.767Z,14.65
2022-08-16T06:51:18.729Z,12.68
2022-08-16T06:53:46.373Z,12.88
2022-08-16T06:56:23.498Z,12.25
2022-08-16T06:58:52.421Z,13.20
2022-08-16T07:01:34.387Z,12.82
2022-08-16T07:04:11.930Z,12.45
2022-08-16T07:06:43.726Z,13.10
2022-08-16T07:09:13.373Z,12.52
2022-08-16T07:11:47.476Z,12.27
2022-08-16T07:14:26.405Z,14.38
2022-08-16T07:16:58.858Z,12.00
2022-08-16T07:20:01.748Z,12.35
2022-08-16T07:22:36.751Z,11.75
2022-08-16T07:25:05.352Z,11.90
2022-08-16T07:27:37.255Z,11.13
2022-08-16T07:30:45.980Z,10.85
2022-08-16T07:32:56.188Z,10.95
2022-08-16T07:35:23.597Z,12.32
2022-08-16T07:37:50.271Z,10.30
2022-08-16T07:40:37.009Z,9.50
2022-08-16T07:43:07.270Z,10.18
2022-08-16T07:45:37.885Z,10.60
2022-08-16T07:48:11.903Z,10.13
2022-08-16T07:50:55.712Z,9.05
2022-08-16T07:53:24.642Z,9.73
2022-08-16T07:55:55.522Z,9.07
2022-08-16T07:58:33.891Z,9.48
2022-08-16T08:01:10.612Z,9.75
2022-08-16T08:03:48.481Z,8.70
2022-08-16T08:06:21.328Z,10.38
2022-08-16T08:08:57.165Z,9.27
2022-08-16T08:11:25.061Z,10.07
2022-08-16T08:13:57.581Z,9.18
2022-08-16T08:16:33.132Z,8.82
2022-08-16T08:19:02.952Z,8.80
2022-08-16T08:21:58.253Z,9.23
2022-08-16T08:24:18.745Z,9.75
2022-08-16T08:26:50.340Z,8.90
2022-08-16T08:29:22.512Z,9.32
2022-08-16T08:31:49.927Z,9.25
2022-08-16T08:34:18.792Z,8.73
2022-08-16T08:36:45.719Z,11.57
2022-08-16T08:39:15.639Z,9.77
2022-08-16T08:41:49.334Z,8.70
2022-08-16T08:44:28.537Z,9.88
2022-08-16T08:47:11.063Z,9.57
2022-08-16T08:49:50.743Z,8.35
2022-08-16T08:52:34.721Z,8.88
2022-08-16T08:55:09.184Z,9.10
2022-08-16T08:57:38.330Z,10.40
2022-08-16T09:00:07.910Z,8.50
2022-08-16T09:02:40.416Z,9.15
2022-08-16T09:05:15.602Z,8.73
2022-08-16T09:08:00.351Z,7.72
2022-08-16T09:10:29.481Z,9.45
2022-08-16T09:12:58.198Z,9.93
2022-08-16T09:15:32.658Z,8.93
2022-08-16T09:18:25.417Z,8.90
2022-08-16T09:21:00.182Z,12.00
2022-08-16T09:23:36.668Z,8.23
2022-08-16T09:26:44.907Z,7.30
2022-08-16T09:29:15.019Z,8.48
2022-08-16T09:31:43.269Z,7.45
2022-08-16T09:34:17.162Z,8.63
2022-08-16T09:36:46.184Z,7.28
2022-08-16T09:39:16.029Z,8.43
2022-08-16T09:41:53.231Z,7.10
2022-08-16T09:45:11.655Z,6.63
2022-08-16T09:47:11.025Z,7.22
2022-08-16T09:49:41.152Z,8.00
2022-08-16T09:52:09.455Z,7.20
2022-08-16T09:54:38.915Z,7.93
2022-08-16T09:57:14.849Z,6.88
2022-08-16T09:59:42.385Z,7.60
2022-08-16T10:02:26.846Z,7.18
2022-08-16T10:04:58.580Z,8.15
2022-08-16T10:07:38.266Z,7.68
2022-08-16T10:10:18.678Z,9.20
2022-08-16T10:13:12.647Z,7.85
2022-08-16T10:15:55.745Z,8.02
2022-08-16T10:19:00.509Z,8.50
2022-08-16T10:21:10.269Z,7.82
2022-08-16T10:23:37.217Z,8.57
2022-08-16T10:27:18.288Z,8.55
2022-08-16T10:28:52.352Z,8.38
2022-08-16T10:31:43.650Z,7.93
2022-08-16T10:34:30.967Z,8.13
2022-08-16T10:36:54.203Z,8.60
2022-08-16T10:39:24.566Z,9.10
2022-08-16T10:41:51.414Z,9.27
2022-08-16T10:44:18.214Z,9.25
2022-08-16T10:46:46.181Z,8.25
2022-08-16T10:49:18.150Z,8.00
2022-08-16T10:52:01.846Z,8.30
2022-08-16T10:57:00.529Z,10.55
2022-08-16T10:59:38.944Z,8.90
2022-08-16T11:02:59.169Z,9.38
2022-08-16T11:05:14.085Z,9.95
2022-08-16T11:13:58.310Z,8.52
2022-08-16T11:19:05.231Z,7.95
2022-08-16T11:21:33.717Z,8.60
2022-08-16T11:24:02.125Z,8.73
2022-08-16T11:26:29.811Z,8.48
2022-08-16T11:29:14.503Z,9.60
2022-08-16T11:31:45.710Z,8.18
2022-08-16T11:34:20.871Z,7.85
2022-08-16T11:36:54.006Z,7.57
2022-08-16T11:39:29.737Z,7.55
2022-08-16T11:41:57.968Z,7.30
2022-08-16T11:44:52.957Z,8.88
2022-08-16T11:47:15.312Z,8.20
2022-08-16T11:49:42.468Z,8.40
2022-08-16T11:52:09.355Z,8.55
2022-08-16T11:54:41.646Z,8.00
2022-08-16T11:57:12.158Z,7.75
2022-08-16T11:59:40.261Z,8.20
2022-08-16T12:02:31.607Z,8.60
2022-08-16T12:04:55.914Z,8.85
2022-08-16T12:07:23.514Z,9.02
2022-08-16T12:09:53.201Z,8.20
2022-08-16T12:12:21.264Z,11.27
2022-08-16T12:14:55.878Z,8.13
2022-08-16T12:17:28.101Z,8.10
2022-08-16T12:19:58.444Z,10.30
2022-08-16T12:22:25.362Z,9.20
2022-08-16T12:24:54.857Z,10.18
2022-08-16T12:27:24.176Z,10.13
2022-08-16T12:29:52.840Z,10.32
2022-08-16T12:32:37.475Z,9.65
2022-08-16T12:35:08.663Z,10.80
2022-08-16T12:37:35.624Z,9.65
2022-08-16T12:40:02.694Z,9.63
2022-08-16T12:42:35.506Z,10.02
2022-08-16T12:45:06.044Z,9.27
2022-08-16T12:47:51.406Z,10.50
2022-08-16T12:50:20.512Z,9.57
2022-08-16T12:52:52.943Z,9.38
2022-08-16T12:55:20.845Z,9.45
2022-08-16T12:57:58.553Z,9.13
2022-08-16T13:00:34.032Z,8.93
2022-08-16T13:03:03.550Z,9.13
2022-08-16T13:08:03.333Z,9.82
2022-08-16T13:10:38.152Z,11.85
2022-08-16T13:13:08.739Z,9.10
2022-08-16T13:15:55.710Z,8.65
2022-08-16T13:18:32.678Z,10.27
2022-08-16T13:21:06.726Z,9.70
2022-08-16T13:23:35.798Z,9.40
2022-08-16T13:26:03.436Z,10.02
2022-08-16T13:28:30.091Z,9.60
2022-08-16T13:30:58.468Z,13.32
2022-08-16T13:33:30.555Z,12.65
2022-08-16T13:36:02.048Z,13.93
2022-08-16T13:38:31.380Z,16.80
2022-08-16T13:40:59.799Z,13.02
2022-08-16T13:43:28.011Z,15.43
2022-08-16T13:45:56.791Z,12.20
2022-08-16T13:48:26.058Z,10.52
2022-08-16T13:51:00.592Z,10.25
2022-08-16T13:53:30.911Z,8.90
2022-08-16T13:56:02.532Z,12.90
2022-08-16T13:58:37.513Z,10.98
2022-08-16T14:01:18.534Z,12.82
2022-08-16T14:03:46.852Z,9.77
2022-08-16T14:06:14.859Z,9.85
2022-08-16T14:08:43.188Z,11.85
2022-08-16T14:11:14.854Z,10.57
2022-08-16T14:13:43.872Z,10.98
2022-08-16T14:16:12.622Z,10.00
2022-08-16T14:18:53.139Z,9.57
2022-08-16T14:21:23.676Z,8.30
2022-08-16T14:23:52.359Z,8.93
2022-08-16T14:26:21.539Z,8.40
2022-08-16T14:28:50.703Z,8.57
2022-08-16T14:31:18.482Z,9.65
2022-08-16T14:33:45.993Z,8.07
2022-08-16T14:36:25.034Z,8.90
2022-08-16T14:38:56.896Z,10.20
2022-08-16T14:41:28.945Z,9.60
2022-08-16T14:43:56.646Z,8.43
2022-08-16T14:46:24.070Z,8.70
2022-08-16T14:48:51.103Z,8.30
2022-08-16T14:51:20.465Z,8.60
2022-08-16T14:53:52.712Z,8.45
2022-08-16T14:56:38.563Z,8.43
2022-08-16T14:59:06.861Z,9.13
2022-08-16T15:01:57.378Z,9.10
2022-08-16T15:04:40.519Z,9.18
2022-08-16T15:07:12.850Z,9.38
2022-08-16T15:10:00.623Z,11.85
2022-08-16T15:12:34.004Z,9.75
2022-08-16T15:15:13.126Z,10.20
2022-08-16T15:17:53.990Z,10.38
2022-08-16T15:20:22.574Z,9.57
2022-08-16T15:22:50.719Z,10.48
2022-08-16T15:25:41.326Z,11.23
2022-08-16T15:28:23.600Z,10.90
2022-08-16T15:31:06.060Z,11.57
2022-08-16T15:33:35.294Z,10.50
2022-08-16T15:36:03.001Z,12.88
2022-08-16T15:38:54.717Z,12.60
2022-08-16T15:41:42.528Z,12.93
2022-08-16T15:44:17.967Z,12.10
2022-08-16T15:46:55.439Z,14.98
2022-08-16T15:49:38.039Z,13.10
2022-08-16T15:52:24.795Z,11.63
2022-08-16T15:54:59.524Z,13.40
2022-08-16T15:57:28.549Z,12.18
2022-08-16T16:00:14.777Z,13.40
2022-08-16T16:02:43.940Z,15.45
2022-08-16T16:05:10.983Z,13.80
2022-08-16T16:07:41.041Z,12.20
2022-08-16T16:10:30.099Z,12.85
2022-08-16T16:13:04.922Z,14.18
2022-08-16T16:15:44.987Z,14.88
2022-08-16T16:18:13.403Z,13.50
2022-08-16T16:20:43.946Z,10.05
2022-08-16T16:23:11.434Z,9.68
2022-08-16T16:25:40.070Z,12.82
2022-08-16T16:29:06.537Z,11.98
2022-08-16T16:31:04.982Z,13.02
2022-08-16T16:33:39.794Z,12.75
2022-08-16T16:38:35.333Z,13.80
2022-08-16T16:41:09.927Z,16.50
2022-08-16T16:43:43.922Z,15.27
2022-08-16T16:46:32.767Z,14.25
2022-08-16T16:49:04.105Z,15.75
2022-08-16T16:51:32.588Z,14.77
2022-08-16T16:54:08.646Z,14.80
2022-08-16T16:56:37.771Z,14.75
2022-08-16T16:59:10.303Z,13.77
2022-08-16T17:02:00.529Z,14.60
2022-08-16T17:04:31.828Z,15.75
2022-08-16T17:07:02.732Z,16.38
2022-08-16T17:09:30.066Z,16.35
2022-08-16T17:11:57.260Z,19.50
2022-08-16T17:14:33.340Z,16.08
2022-08-16T17:17:11.709Z,16.38
2022-08-16T17:19:45.617Z,16.58
2022-08-16T17:22:15.538Z,16.23
2022-08-16T17:24:44.790Z,15.05
2022-08-16T17:27:18.054Z,16.70
2022-08-16T17:29:51.406Z,16.65
2022-08-16T17:32:34.315Z,17.23
2022-08-16T17:35:18.469Z,16.60
2022-08-16T17:37:51.831Z,19.02
2022-08-16T17:40:34.013Z,17.35
2022-08-16T17:43:14.641Z,17.95
2022-08-16T17:45:42.699Z,18.00
2022-08-16T17:48:09.692Z,19.58
2022-08-16T17:50:38.863Z,18.27
2022-08-16T17:53:06.675Z,17.30
2022-08-16T17:55:36.768Z,16.00
2022-08-16T17:58:14.555Z,17.48
2022-08-16T18:00:53.313Z,17.20
2022-08-16T18:04:07.079Z,18.05
2022-08-16T18:06:25.089Z,18.52
2022-08-16T18:09:01.732Z,17.55
2022-08-16T18:11:30.162Z,16.95
2022-08-16T18:13:59.837Z,17.10
2022-08-16T18:16:27.067Z,21.27
2022-08-16T18:18:55.787Z,18.73
2022-08-16T18:21:41.235Z,18.02
2022-08-16T18:26:35.814Z,17.90
2022-08-16T18:29:02.637Z,18.33
2022-08-16T18:31:29.631Z,19.30
2022-08-16T18:33:56.709Z,16.27
2022-08-16T18:36:24.655Z,17.70
2022-08-16T18:38:53.102Z,18.00
2022-08-16T18:41:23.050Z,18.40
2022-08-16T18:44:04.792Z,19.17
2022-08-16T18:46:40.596Z,18.60
2022-08-16T18:49:07.524Z,16.50
2022-08-16T18:51:36.981Z,15.68
2022-08-16T18:54:04.839Z,17.52
2022-08-16T18:56:55.469Z,18.75
2022-08-16T18:59:18.458Z,17.52
2022-08-16T19:01:46.746Z,19.58
2022-08-16T19:04:55.400Z,20.65
2022-08-16T19:07:01.175Z,20.08
2022-08-16T19:09:27.892Z,22.02
2022-08-16T19:11:54.792Z,20.60
2022-08-16T19:14:24.825Z,22.60
2022-08-16T19:16:51.639Z,18.65
2022-08-16T19:19:18.309Z,18.90
2022-08-16T19:21:45.054Z,20.15
2022-08-16T19:24:17.766Z,20.05
2022-08-16T19:26:45.478Z,19.20
2022-08-16T19:29:12.243Z,18.05
2022-08-16T19:31:40.499Z,20.23
2022-08-16T19:34:08.270Z,16.08
2022-08-16T19:36:37.565Z,20.20
2022-08-16T19:39:11.198Z,22.70
2022-08-16T19:41:52.076Z,25.33
2022-08-16T19:44:22.640Z,18.73
2022-08-16T19:46:50.013Z,21.20
2022-08-16T19:49:17.196Z,23.77
2022-08-16T19:51:45.766Z,22.30
2022-08-16T19:54:12.489Z,20.48
2022-08-16T19:56:39.236Z,20.80
2022-08-16T19:59:40.565Z,20.98
2022-08-16T20:01:56.659Z,22.77
2022-08-16T20:04:25.694Z,20.63
2022-08-16T20:06:53.303Z,22.05
2022-08-16T20:09:22.156Z,19.33
2022-08-16T20:11:52.245Z,17.48
2022-08-16T20:14:25.392Z,19.10
2022-08-16T20:17:01.472Z,18.85
2022-08-16T20:19:33.409Z,18.17
2022-08-16T20:22:42.105Z,21.25
2022-08-16T20:25:09.740Z,18.92
2022-08-16T20:27:39.135Z,24.35
2022-08-16T20:30:08.944Z,19.52
2022-08-16T20:32:40.426Z,19.30
2022-08-16T20:35:10.575Z,17.88
2022-08-16T20:37:38.981Z,16.70
2022-08-16T20:40:28.336Z,15.48
2022-08-16T20:43:04.833Z,15.65
2022-08-16T20:45:33.727Z,18.10
2022-08-16T20:48:00.445Z,16.00
2022-08-16T20:50:27.190Z,20.00
2022-08-16T20:52:57.321Z,17.35
2022-08-16T20:55:25.441Z,18.10
2022-08-16T20:57:55.772Z,19.20
2022-08-16T21:00:23.027Z,18.70
2022-08-16T21:02:50.331Z,18.88
2022-08-16T21:05:25.870Z,20.38
2022-08-16T21:08:00.570Z,18.67
2022-08-16T21:10:29.959Z,16.00
2022-08-16T21:12:59.824Z,16.58
2022-08-16T21:15:27.678Z,15.02
2022-08-16T21:17:55.109Z,15.93
2022-08-16T21:20:26.760Z,17.83
2022-08-16T21:23:01.309Z,17.35
2022-08-16T21:25:30.494Z,19.35
2022-08-16T21:28:39.221Z,18.92
2022-08-16T21:30:50.238Z,20.30
2022-08-16T21:33:19.449Z,21.45
2022-08-16T21:35:48.332Z,19.33
2022-08-16T21:38:29.655Z,18.92
2022-08-16T21:40:58.420Z,17.55
2022-08-16T21:43:26.690Z,18.15
2022-08-16T21:45:55.790Z,16.98
2022-08-16T21:48:34.346Z,17.65
2022-08-16T21:51:10.769Z,19.67
2022-08-16T21:53:38.369Z,20.25
2022-08-16T21:56:06.641Z,18.55
2022-08-16T21:58:37.625Z,18.88
2022-08-16T22:01:05.128Z,18.42
2022-08-16T22:03:35.542Z,20.05
2022-08-16T22:06:13.153Z,19.13
2022-08-16T22:08:48.921Z,17.83
2022-08-16T22:11:24.780Z,19.00
2022-08-16T22:13:58.512Z,19.77
2022-08-16T22:16:29.690Z,19.48
2022-08-16T22:18:56.418Z,18.60
2022-08-16T22:21:23.325Z,17.83
2022-08-16T22:23:57.267Z,18.50
2022-08-16T22:29:06.476Z,19.48
2022-08-16T22:31:34.451Z,18.75
2022-08-16T22:34:04.457Z,18.17
2022-08-16T22:36:33.407Z,19.30
2022-08-16T22:39:05.554Z,18.52
2022-08-16T22:41:35.467Z,18.00
2022-08-16T22:44:04.315Z,17.90
2022-08-16T22:46:31.767Z,20.15
2022-08-16T22:48:58.757Z,19.27
2022-08-16T22:51:28.438Z,17.67
2022-08-16T22:53:56.147Z,19.80
2022-08-16T22:56:26.219Z,17.20
2022-08-16T22:58:53.265Z,18.67
2022-08-16T23:01:22.284Z,15.43
2022-08-16T23:03:49.147Z,17.92
2022-08-16T23:06:17.107Z,16.50
2022-08-16T23:08:44.136Z,14.13
2022-08-16T23:11:21.428Z,16.05
2022-08-16T23:13:53.709Z,12.80
2022-08-16T23:16:32.262Z,14.55
2022-08-16T23:19:03.333Z,15.10
2022-08-16T23:21:30.224Z,14.52
2022-08-16T23:23:56.924Z,14.70
2022-08-16T23:26:44.874Z,14.20
2022-08-16T23:29:16.043Z,13.20
2022-08-16T23:31:50.570Z,14.27
2022-08-16T23:34:21.156Z,12.88
2022-08-16T23:36:47.826Z,13.40
2022-08-16T23:39:14.484Z,13.88
2022-08-16T23:41:41.252Z,13.13
2022-08-16T23:44:57.469Z,12.25
2022-08-16T23:46:55.633Z,12.05
2022-08-16T23:50:01.988Z,12.35
2022-08-16T23:52:11.508Z,12.95
2022-08-16T23:54:38.415Z,13.95
2022-08-16T23:57:05.350Z,12.40
2022-08-16T23:59:52.185Z,14.75
